sensor_id;sensor_type;location;lat;lon;timestamp;P1;durP1;ratioP1;P2;durP2;ratioP2
13605;SDS011;6874;52.084;5.090;2022-10-31T00:02:07;261.80;;;252.27;;
13605;SDS011;6874;52.084;5.090;2022-10-31T00:04:32;263.80;;;254.10;;
13605;SDS011;6874;52.084;5.090;2022-10-31T00:06:58;259.97;;;250.57;;
13605;SDS011;6874;52.084;5.090;2022-10-31T00:09:23;248.53;;;239.40;;
13605;SDS011;6874;52.084;5.090;2022-10-31T00:11:49;253.00;;;243.80;;
13605;SDS011;6874;52.084;5.090;2022-10-31T00:14:17;255.27;;;245.93;;
13605;SDS011;6874;52.084;5.090;2022-10-31T00:16:43;247.83;;;238.77;;
13605;SDS011;6874;52.084;5.090;2022-10-31T00:19:08;236.50;;;228.00;;
13605;SDS011;6874;52.084;5.090;2022-10-31T00:21:34;243.80;;;234.97;;
13605;SDS011;6874;52.084;5.090;2022-10-31T00:24:00;240.97;;;232.40;;
13605;SDS011;6874;52.084;5.090;2022-10-31T00:26:26;227.07;;;218.97;;
13605;SDS011;6874;52.084;5.090;2022-10-31T00:28:53;226.63;;;218.53;;
13605;SDS011;6874;52.084;5.090;2022-10-31T00:31:18;221.63;;;213.67;;
13605;SDS011;6874;52.084;5.090;2022-10-31T00:33:44;229.13;;;221.03;;
13605;SDS011;6874;52.084;5.090;2022-10-31T00:36:14;220.67;;;212.80;;
13605;SDS011;6874;52.084;5.090;2022-10-31T00:38:41;214.70;;;207.10;;
13605;SDS011;6874;52.084;5.090;2022-10-31T00:41:08;217.50;;;209.80;;
13605;SDS011;6874;52.084;5.090;2022-10-31T00:43:34;221.00;;;213.17;;
13605;SDS011;6874;52.084;5.090;2022-10-31T00:45:59;223.30;;;215.30;;
13605;SDS011;6874;52.084;5.090;2022-10-31T00:48:25;217.50;;;209.83;;
13605;SDS011;6874;52.084;5.090;2022-10-31T00:50:50;214.40;;;206.80;;
13605;SDS011;6874;52.084;5.090;2022-10-31T00:53:16;218.87;;;211.07;;
13605;SDS011;6874;52.084;5.090;2022-10-31T00:55:41;223.50;;;215.50;;
13605;SDS011;6874;52.084;5.090;2022-10-31T00:58:07;228.70;;;220.47;;
13605;SDS011;6874;52.084;5.090;2022-10-31T01:00:32;232.27;;;223.87;;
13605;SDS011;6874;52.084;5.090;2022-10-31T01:02:58;231.70;;;223.27;;
13605;SDS011;6874;52.084;5.090;2022-10-31T01:05:23;222.70;;;214.70;;
13605;SDS011;6874;52.084;5.090;2022-10-31T01:07:49;241.67;;;232.97;;
13605;SDS011;6874;52.084;5.090;2022-10-31T01:10:15;236.47;;;227.87;;
13605;SDS011;6874;52.084;5.090;2022-10-31T01:12:41;231.10;;;222.63;;
13605;SDS011;6874;52.084;5.090;2022-10-31T01:15:10;225.53;;;217.27;;
13605;SDS011;6874;52.084;5.090;2022-10-31T01:17:37;240.13;;;231.33;;
13605;SDS011;6874;52.084;5.090;2022-10-31T01:20:03;230.63;;;222.17;;
13605;SDS011;6874;52.084;5.090;2022-10-31T01:22:30;229.13;;;220.83;;
13605;SDS011;6874;52.084;5.090;2022-10-31T01:24:55;225.07;;;216.87;;
13605;SDS011;6874;52.084;5.090;2022-10-31T01:27:21;224.30;;;216.10;;
13605;SDS011;6874;52.084;5.090;2022-10-31T01:29:46;226.87;;;218.67;;
13605;SDS011;6874;52.084;5.090;2022-10-31T01:32:12;222.00;;;214.07;;
13605;SDS011;6874;52.084;5.090;2022-10-31T01:34:38;214.30;;;206.70;;
13605;SDS011;6874;52.084;5.090;2022-10-31T01:37:03;216.23;;;208.47;;
13605;SDS011;6874;52.084;5.090;2022-10-31T01:39:29;207.93;;;200.57;;
13605;SDS011;6874;52.084;5.090;2022-10-31T01:41:54;216.07;;;208.50;;
13605;SDS011;6874;52.084;5.090;2022-10-31T01:46:48;196.13;;;189.23;;
13605;SDS011;6874;52.084;5.090;2022-10-31T01:49:17;196.10;;;189.23;;
13605;SDS011;6874;52.084;5.090;2022-10-31T01:51:53;192.73;;;186.03;;
13605;SDS011;6874;52.084;5.090;2022-10-31T01:54:23;184.30;;;177.90;;
13605;SDS011;6874;52.084;5.090;2022-10-31T01:56:53;186.47;;;180.07;;
13605;SDS011;6874;52.084;5.090;2022-10-31T01:59:22;180.83;;;174.67;;
13605;SDS011;6874;52.084;5.090;2022-10-31T02:01:51;170.37;;;164.57;;
13605;SDS011;6874;52.084;5.090;2022-10-31T02:04:17;165.83;;;160.20;;
13605;SDS011;6874;52.084;5.090;2022-10-31T02:06:54;156.60;;;151.30;;
13605;SDS011;6874;52.084;5.090;2022-10-31T02:09:25;157.00;;;151.63;;
13605;SDS011;6874;52.084;5.090;2022-10-31T02:11:52;158.43;;;153.07;;
13605;SDS011;6874;52.084;5.090;2022-10-31T02:14:20;159.27;;;153.87;;
13605;SDS011;6874;52.084;5.090;2022-10-31T02:16:48;159.73;;;154.37;;
13605;SDS011;6874;52.084;5.090;2022-10-31T02:19:16;158.50;;;153.17;;
13605;SDS011;6874;52.084;5.090;2022-10-31T02:21:57;150.50;;;145.40;;
13605;SDS011;6874;52.084;5.090;2022-10-31T02:24:41;153.93;;;148.73;;
13605;SDS011;6874;52.084;5.090;2022-10-31T02:30:14;143.17;;;138.30;;
13605;SDS011;6874;52.084;5.090;2022-10-31T02:38:27;137.67;;;132.93;;
13605;SDS011;6874;52.084;5.090;2022-10-31T02:43:36;138.47;;;133.80;;
13605;SDS011;6874;52.084;5.090;2022-10-31T02:46:08;138.37;;;133.70;;
13605;SDS011;6874;52.084;5.090;2022-10-31T02:49:04;132.10;;;127.60;;
13605;SDS011;6874;52.084;5.090;2022-10-31T02:51:35;129.33;;;124.93;;
13605;SDS011;6874;52.084;5.090;2022-10-31T02:54:00;133.87;;;129.30;;
13605;SDS011;6874;52.084;5.090;2022-10-31T02:56:26;130.17;;;125.80;;
13605;SDS011;6874;52.084;5.090;2022-10-31T02:58:53;125.87;;;121.63;;
13605;SDS011;6874;52.084;5.090;2022-10-31T03:01:42;126.47;;;122.20;;
13605;SDS011;6874;52.084;5.090;2022-10-31T03:10:03;121.57;;;117.43;;
13605;SDS011;6874;52.084;5.090;2022-10-31T03:15:40;115.00;;;111.13;;
13605;SDS011;6874;52.084;5.090;2022-10-31T03:18:29;110.27;;;106.57;;
13605;SDS011;6874;52.084;5.090;2022-10-31T03:21:05;107.67;;;104.03;;
13605;SDS011;6874;52.084;5.090;2022-10-31T03:23:31;105.70;;;102.17;;
13605;SDS011;6874;52.084;5.090;2022-10-31T03:26:00;104.87;;;101.37;;
13605;SDS011;6874;52.084;5.090;2022-10-31T03:28:31;99.90;;;96.57;;
13605;SDS011;6874;52.084;5.090;2022-10-31T03:31:00;98.63;;;95.37;;
13605;SDS011;6874;52.084;5.090;2022-10-31T03:33:30;90.33;;;87.37;;
13605;SDS011;6874;52.084;5.090;2022-10-31T03:35:59;93.23;;;90.17;;
13605;SDS011;6874;52.084;5.090;2022-10-31T03:38:27;86.40;;;83.53;;
13605;SDS011;6874;52.084;5.090;2022-10-31T03:40:54;89.53;;;86.60;;
13605;SDS011;6874;52.084;5.090;2022-10-31T03:43:24;84.40;;;81.63;;
13605;SDS011;6874;52.084;5.090;2022-10-31T03:45:55;79.43;;;76.83;;
13605;SDS011;6874;52.084;5.090;2022-10-31T03:48:21;80.57;;;77.90;;
13605;SDS011;6874;52.084;5.090;2022-10-31T03:51:04;76.57;;;74.07;;
13605;SDS011;6874;52.084;5.090;2022-10-31T03:53:56;79.03;;;76.43;;
13605;SDS011;6874;52.084;5.090;2022-10-31T03:59:06;75.23;;;72.77;;
13605;SDS011;6874;52.084;5.090;2022-10-31T04:01:39;77.10;;;74.60;;
13605;SDS011;6874;52.084;5.090;2022-10-31T04:04:07;69.60;;;67.30;;
13605;SDS011;6874;52.084;5.090;2022-10-31T04:06:34;71.10;;;68.77;;
13605;SDS011;6874;52.084;5.090;2022-10-31T04:09:03;66.30;;;64.13;;
13605;SDS011;6874;52.084;5.090;2022-10-31T04:11:33;67.80;;;65.57;;
13605;SDS011;6874;52.084;5.090;2022-10-31T04:14:01;64.00;;;61.90;;
13605;SDS011;6874;52.084;5.090;2022-10-31T04:16:28;61.83;;;59.77;;
13605;SDS011;6874;52.084;5.090;2022-10-31T04:18:54;64.17;;;62.07;;
13605;SDS011;6874;52.084;5.090;2022-10-31T04:21:25;60.10;;;58.13;;
13605;SDS011;6874;52.084;5.090;2022-10-31T04:23:53;60.07;;;58.10;;
13605;SDS011;6874;52.084;5.090;2022-10-31T04:26:18;58.13;;;56.23;;
13605;SDS011;6874;52.084;5.090;2022-10-31T04:28:44;60.47;;;58.50;;
13605;SDS011;6874;52.084;5.090;2022-10-31T04:31:10;60.00;;;58.03;;
13605;SDS011;6874;52.084;5.090;2022-10-31T04:33:36;64.97;;;62.83;;
13605;SDS011;6874;52.084;5.090;2022-10-31T04:36:02;58.00;;;56.10;;
13605;SDS011;6874;52.084;5.090;2022-10-31T04:38:29;61.13;;;59.13;;
13605;SDS011;6874;52.084;5.090;2022-10-31T04:40:55;57.13;;;55.27;;
13605;SDS011;6874;52.084;5.090;2022-10-31T04:43:20;59.97;;;58.00;;
13605;SDS011;6874;52.084;5.090;2022-10-31T04:45:46;66.67;;;64.50;;
13605;SDS011;6874;52.084;5.090;2022-10-31T04:48:11;54.77;;;52.97;;
13605;SDS011;6874;52.084;5.090;2022-10-31T04:50:37;58.57;;;56.67;;
13605;SDS011;6874;52.084;5.090;2022-10-31T04:53:02;54.47;;;52.67;;
13605;SDS011;6874;52.084;5.090;2022-10-31T04:55:28;54.40;;;52.60;;
13605;SDS011;6874;52.084;5.090;2022-10-31T04:57:53;58.37;;;56.43;;
13605;SDS011;6874;52.084;5.090;2022-10-31T05:00:19;54.07;;;52.30;;
13605;SDS011;6874;52.084;5.090;2022-10-31T05:02:56;49.57;;;47.93;;
13605;SDS011;6874;52.084;5.090;2022-10-31T05:05:27;55.70;;;53.87;;
13605;SDS011;6874;52.084;5.090;2022-10-31T05:07:54;49.53;;;47.90;;
13605;SDS011;6874;52.084;5.090;2022-10-31T05:10:21;44.50;;;43.07;;
13605;SDS011;6874;52.084;5.090;2022-10-31T05:12:53;47.40;;;45.87;;
13605;SDS011;6874;52.084;5.090;2022-10-31T05:15:20;43.43;;;42.03;;
13605;SDS011;6874;52.084;5.090;2022-10-31T05:17:48;38.83;;;37.57;;
13605;SDS011;6874;52.084;5.090;2022-10-31T05:20:15;31.10;;;30.10;;
13605;SDS011;6874;52.084;5.090;2022-10-31T05:22:46;29.83;;;28.90;;
13605;SDS011;6874;52.084;5.090;2022-10-31T05:25:13;29.17;;;28.27;;
13605;SDS011;6874;52.084;5.090;2022-10-31T05:27:39;25.40;;;24.60;;
13605;SDS011;6874;52.084;5.090;2022-10-31T05:30:06;25.40;;;24.60;;
13605;SDS011;6874;52.084;5.090;2022-10-31T05:32:39;23.03;;;22.33;;
13605;SDS011;6874;52.084;5.090;2022-10-31T05:35:07;23.20;;;22.50;;
13605;SDS011;6874;52.084;5.090;2022-10-31T05:37:34;24.93;;;24.13;;
13605;SDS011;6874;52.084;5.090;2022-10-31T05:40:03;21.10;;;20.43;;
13605;SDS011;6874;52.084;5.090;2022-10-31T05:42:30;23.10;;;22.40;;
13605;SDS011;6874;52.084;5.090;2022-10-31T05:44:56;19.03;;;18.43;;
13605;SDS011;6874;52.084;5.090;2022-10-31T05:47:21;18.60;;;18.00;;
13605;SDS011;6874;52.084;5.090;2022-10-31T05:49:47;15.93;;;15.43;;
13605;SDS011;6874;52.084;5.090;2022-10-31T05:52:13;14.43;;;14.03;;
13605;SDS011;6874;52.084;5.090;2022-10-31T05:54:39;14.67;;;14.27;;
13605;SDS011;6874;52.084;5.090;2022-10-31T05:57:04;14.47;;;14.07;;
13605;SDS011;6874;52.084;5.090;2022-10-31T05:59:30;15.03;;;14.57;;
13605;SDS011;6874;52.084;5.090;2022-10-31T06:01:55;14.40;;;14.00;;
13605;SDS011;6874;52.084;5.090;2022-10-31T06:04:21;14.37;;;13.97;;
13605;SDS011;6874;52.084;5.090;2022-10-31T06:06:46;17.33;;;16.83;;
13605;SDS011;6874;52.084;5.090;2022-10-31T06:09:12;14.10;;;13.70;;
13605;SDS011;6874;52.084;5.090;2022-10-31T06:11:37;12.93;;;12.53;;
13605;SDS011;6874;52.084;5.090;2022-10-31T06:14:03;13.57;;;13.17;;
13605;SDS011;6874;52.084;5.090;2022-10-31T06:16:30;14.30;;;13.90;;
13605;SDS011;6874;52.084;5.090;2022-10-31T06:18:55;15.30;;;14.80;;
13605;SDS011;6874;52.084;5.090;2022-10-31T06:21:21;14.50;;;14.10;;
13605;SDS011;6874;52.084;5.090;2022-10-31T06:23:46;14.00;;;13.60;;
13605;SDS011;6874;52.084;5.090;2022-10-31T06:26:12;14.57;;;14.17;;
13605;SDS011;6874;52.084;5.090;2022-10-31T06:28:37;14.13;;;13.73;;
13605;SDS011;6874;52.084;5.090;2022-10-31T06:31:03;13.30;;;12.90;;
13605;SDS011;6874;52.084;5.090;2022-10-31T06:33:28;15.17;;;14.67;;
13605;SDS011;6874;52.084;5.090;2022-10-31T06:35:54;13.17;;;12.77;;
13605;SDS011;6874;52.084;5.090;2022-10-31T06:38:20;15.77;;;15.27;;
13605;SDS011;6874;52.084;5.090;2022-10-31T06:40:45;15.83;;;15.33;;
13605;SDS011;6874;52.084;5.090;2022-10-31T06:43:11;16.90;;;16.40;;
13605;SDS011;6874;52.084;5.090;2022-10-31T06:45:37;16.10;;;15.60;;
13605;SDS011;6874;52.084;5.090;2022-10-31T06:48:02;17.60;;;17.10;;
13605;SDS011;6874;52.084;5.090;2022-10-31T06:50:28;21.03;;;20.37;;
13605;SDS011;6874;52.084;5.090;2022-10-31T06:52:54;29.27;;;28.37;;
13605;SDS011;6874;52.084;5.090;2022-10-31T06:55:22;41.03;;;39.73;;
13605;SDS011;6874;52.084;5.090;2022-10-31T06:57:52;39.77;;;38.47;;
13605;SDS011;6874;52.084;5.090;2022-10-31T07:00:23;45.90;;;44.40;;
13605;SDS011;6874;52.084;5.090;2022-10-31T07:03:09;48.30;;;46.70;;
13605;SDS011;6874;52.084;5.090;2022-10-31T07:05:36;50.23;;;48.60;;
13605;SDS011;6874;52.084;5.090;2022-10-31T07:08:03;53.63;;;51.87;;
13605;SDS011;6874;52.084;5.090;2022-10-31T07:10:32;49.57;;;47.93;;
13605;SDS011;6874;52.084;5.090;2022-10-31T07:12:59;49.67;;;48.03;;
13605;SDS011;6874;52.084;5.090;2022-10-31T07:15:27;51.07;;;49.40;;
13605;SDS011;6874;52.084;5.090;2022-10-31T07:17:54;51.93;;;50.23;;
13605;SDS011;6874;52.084;5.090;2022-10-31T07:20:24;52.73;;;51.00;;
13605;SDS011;6874;52.084;5.090;2022-10-31T07:22:50;53.53;;;51.77;;
13605;SDS011;6874;52.084;5.090;2022-10-31T07:25:15;58.20;;;56.27;;
13605;SDS011;6874;52.084;5.090;2022-10-31T07:27:41;59.00;;;57.07;;
13605;SDS011;6874;52.084;5.090;2022-10-31T07:30:08;58.97;;;57.03;;
13605;SDS011;6874;52.084;5.090;2022-10-31T07:35:04;56.73;;;54.87;;
13605;SDS011;6874;52.084;5.090;2022-10-31T07:37:30;55.90;;;54.03;;
13605;SDS011;6874;52.084;5.090;2022-10-31T07:39:56;59.37;;;57.40;;
13605;SDS011;6874;52.084;5.090;2022-10-31T07:42:21;57.30;;;55.40;;
13605;SDS011;6874;52.084;5.090;2022-10-31T07:44:47;54.93;;;53.10;;
13605;SDS011;6874;52.084;5.090;2022-10-31T07:47:12;53.60;;;51.83;;
13605;SDS011;6874;52.084;5.090;2022-10-31T07:49:38;58.33;;;56.40;;
13605;SDS011;6874;52.084;5.090;2022-10-31T07:52:03;59.17;;;57.20;;
13605;SDS011;6874;52.084;5.090;2022-10-31T07:54:29;55.63;;;53.80;;
13605;SDS011;6874;52.084;5.090;2022-10-31T07:56:54;56.60;;;54.73;;
13605;SDS011;6874;52.084;5.090;2022-10-31T07:59:20;57.97;;;56.03;;
13605;SDS011;6874;52.084;5.090;2022-10-31T08:01:45;59.47;;;57.50;;
13605;SDS011;6874;52.084;5.090;2022-10-31T08:04:11;61.13;;;59.10;;
13605;SDS011;6874;52.084;5.090;2022-10-31T08:06:36;68.40;;;66.10;;
13605;SDS011;6874;52.084;5.090;2022-10-31T08:09:02;69.80;;;67.50;;
13605;SDS011;6874;52.084;5.090;2022-10-31T08:11:27;68.50;;;66.20;;
13605;SDS011;6874;52.084;5.090;2022-10-31T08:13:53;75.27;;;72.77;;
13605;SDS011;6874;52.084;5.090;2022-10-31T08:16:18;81.60;;;78.90;;
13605;SDS011;6874;52.084;5.090;2022-10-31T08:18:44;86.80;;;83.90;;
13605;SDS011;6874;52.084;5.090;2022-10-31T08:21:09;81.93;;;79.20;;
13605;SDS011;6874;52.084;5.090;2022-10-31T08:23:35;87.63;;;84.70;;
13605;SDS011;6874;52.084;5.090;2022-10-31T08:26:01;92.20;;;89.07;;
13605;SDS011;6874;52.084;5.090;2022-10-31T08:28:26;95.03;;;91.87;;
13605;SDS011;6874;52.084;5.090;2022-10-31T08:30:52;106.97;;;103.37;;
13605;SDS011;6874;52.084;5.090;2022-10-31T08:33:18;109.57;;;105.90;;
13605;SDS011;6874;52.084;5.090;2022-10-31T08:35:43;113.10;;;109.27;;
13605;SDS011;6874;52.084;5.090;2022-10-31T08:38:10;112.77;;;108.97;;
13605;SDS011;6874;52.084;5.090;2022-10-31T08:40:37;115.17;;;111.30;;
13605;SDS011;6874;52.084;5.090;2022-10-31T08:43:03;120.47;;;116.40;;
13605;SDS011;6874;52.084;5.090;2022-10-31T08:45:31;117.17;;;113.23;;
13605;SDS011;6874;52.084;5.090;2022-10-31T08:48:02;117.77;;;113.83;;
13605;SDS011;6874;52.084;5.090;2022-10-31T08:50:30;109.90;;;106.23;;
13605;SDS011;6874;52.084;5.090;2022-10-31T08:53:00;108.03;;;104.43;;
13605;SDS011;6874;52.084;5.090;2022-10-31T08:55:54;79.23;;;76.60;;
13605;SDS011;6874;52.084;5.090;2022-10-31T08:58:20;88.10;;;85.20;;
13605;SDS011;6874;52.084;5.090;2022-10-31T09:00:47;90.20;;;87.23;;
13605;SDS011;6874;52.084;5.090;2022-10-31T09:03:19;88.33;;;85.43;;
13605;SDS011;6874;52.084;5.090;2022-10-31T09:05:48;71.60;;;69.27;;
13605;SDS011;6874;52.084;5.090;2022-10-31T09:08:15;71.63;;;69.30;;
13605;SDS011;6874;52.084;5.090;2022-10-31T09:10:42;73.40;;;71.03;;
13605;SDS011;6874;52.084;5.090;2022-10-31T09:13:15;68.23;;;66.03;;
13605;SDS011;6874;52.084;5.090;2022-10-31T09:15:43;55.83;;;54.03;;
13605;SDS011;6874;52.084;5.090;2022-10-31T09:18:09;53.43;;;51.70;;
13605;SDS011;6874;52.084;5.090;2022-10-31T09:20:37;47.47;;;45.93;;
13605;SDS011;6874;52.084;5.090;2022-10-31T09:23:05;42.80;;;41.43;;
13605;SDS011;6874;52.084;5.090;2022-10-31T09:25:34;34.97;;;33.83;;
13605;SDS011;6874;52.084;5.090;2022-10-31T09:28:00;32.53;;;31.53;;
13605;SDS011;6874;52.084;5.090;2022-10-31T09:30:28;27.77;;;26.90;;
13605;SDS011;6874;52.084;5.090;2022-10-31T09:32:56;27.40;;;26.57;;
13605;SDS011;6874;52.084;5.090;2022-10-31T09:35:22;25.20;;;24.40;;
13605;SDS011;6874;52.084;5.090;2022-10-31T09:37:58;22.77;;;22.03;;
13605;SDS011;6874;52.084;5.090;2022-10-31T09:48:11;25.07;;;24.27;;
13605;SDS011;6874;52.084;5.090;2022-10-31T09:50:46;29.23;;;28.33;;
13605;SDS011;6874;52.084;5.090;2022-10-31T09:55:47;36.10;;;34.90;;
13605;SDS011;6874;52.084;5.090;2022-10-31T09:58:20;39.80;;;38.50;;
13605;SDS011;6874;52.084;5.090;2022-10-31T10:00:50;46.67;;;45.13;;
13605;SDS011;6874;52.084;5.090;2022-10-31T10:03:24;47.70;;;46.13;;
13605;SDS011;6874;52.084;5.090;2022-10-31T10:06:17;56.57;;;54.70;;
13605;SDS011;6874;52.084;5.090;2022-10-31T10:08:53;62.73;;;60.63;;
13605;SDS011;6874;52.084;5.090;2022-10-31T10:11:37;66.17;;;63.97;;
13605;SDS011;6874;52.084;5.090;2022-10-31T10:19:43;59.03;;;57.13;;
13605;SDS011;6874;52.084;5.090;2022-10-31T10:22:35;47.83;;;46.27;;
13605;SDS011;6874;52.084;5.090;2022-10-31T10:33:08;42.47;;;41.07;;
13605;SDS011;6874;52.084;5.090;2022-10-31T10:35:52;43.93;;;42.50;;
13605;SDS011;6874;52.084;5.090;2022-10-31T10:40:49;46.10;;;44.57;;
13605;SDS011;6874;52.084;5.090;2022-10-31T10:43:21;51.23;;;49.53;;
13605;SDS011;6874;52.084;5.090;2022-10-31T10:49:11;48.53;;;46.93;;
13605;SDS011;6874;52.084;5.090;2022-10-31T10:51:52;49.83;;;48.13;;
13605;SDS011;6874;52.084;5.090;2022-10-31T10:54:38;54.70;;;52.80;;
13605;SDS011;6874;52.084;5.090;2022-10-31T10:59:42;55.00;;;53.10;;
13605;SDS011;6874;52.084;5.090;2022-10-31T11:02:15;65.07;;;62.87;;
13605;SDS011;6874;52.084;5.090;2022-10-31T11:04:42;66.47;;;64.20;;
13605;SDS011;6874;52.084;5.090;2022-10-31T11:07:10;66.00;;;63.80;;
13605;SDS011;6874;52.084;5.090;2022-10-31T11:09:37;62.80;;;60.73;;
13605;SDS011;6874;52.084;5.090;2022-10-31T11:12:07;60.90;;;58.87;;
13605;SDS011;6874;52.084;5.090;2022-10-31T11:14:48;59.57;;;57.60;;
13605;SDS011;6874;52.084;5.090;2022-10-31T11:20:22;67.67;;;65.47;;
13605;SDS011;6874;52.084;5.090;2022-10-31T11:23:01;66.50;;;64.33;;
13605;SDS011;6874;52.084;5.090;2022-10-31T11:25:29;65.50;;;63.37;;
13605;SDS011;6874;52.084;5.090;2022-10-31T11:28:03;66.13;;;64.00;;
13605;SDS011;6874;52.084;5.090;2022-10-31T11:30:35;67.00;;;64.83;;
13605;SDS011;6874;52.084;5.090;2022-10-31T11:33:11;73.10;;;70.77;;
13605;SDS011;6874;52.084;5.090;2022-10-31T11:35:45;72.37;;;70.07;;
13605;SDS011;6874;52.084;5.090;2022-10-31T11:38:15;70.40;;;68.13;;
13605;SDS011;6874;52.084;5.090;2022-10-31T11:40:54;72.43;;;70.10;;
13605;SDS011;6874;52.084;5.090;2022-10-31T11:43:25;77.37;;;74.87;;
13605;SDS011;6874;52.084;5.090;2022-10-31T11:45:52;74.80;;;72.40;;
13605;SDS011;6874;52.084;5.090;2022-10-31T11:48:20;74.10;;;71.70;;
13605;SDS011;6874;52.084;5.090;2022-10-31T11:50:55;79.80;;;77.23;;
13605;SDS011;6874;52.084;5.090;2022-10-31T11:53:29;74.57;;;72.17;;
13605;SDS011;6874;52.084;5.090;2022-10-31T11:58:38;73.97;;;71.57;;
13605;SDS011;6874;52.084;5.090;2022-10-31T12:01:04;66.57;;;64.43;;
13605;SDS011;6874;52.084;5.090;2022-10-31T12:03:33;62.37;;;60.33;;
13605;SDS011;6874;52.084;5.090;2022-10-31T12:06:15;59.17;;;57.23;;
13605;SDS011;6874;52.084;5.090;2022-10-31T12:08:50;62.63;;;60.60;;
13605;SDS011;6874;52.084;5.090;2022-10-31T12:14:21;58.27;;;56.37;;
13605;SDS011;6874;52.084;5.090;2022-10-31T12:16:59;64.63;;;62.53;;
13605;SDS011;6874;52.084;5.090;2022-10-31T12:28:07;59.77;;;57.77;;
13605;SDS011;6874;52.084;5.090;2022-10-31T12:33:28;63.53;;;61.43;;
13605;SDS011;6874;52.084;5.090;2022-10-31T12:38:36;55.63;;;53.83;;
13605;SDS011;6874;52.084;5.090;2022-10-31T12:41:22;62.53;;;60.50;;
13605;SDS011;6874;52.084;5.090;2022-10-31T12:44:06;60.17;;;58.17;;
13605;SDS011;6874;52.084;5.090;2022-10-31T12:49:27;57.63;;;55.73;;
13605;SDS011;6874;52.084;5.090;2022-10-31T12:58:17;65.03;;;62.93;;
13605;SDS011;6874;52.084;5.090;2022-10-31T13:00:48;67.43;;;65.23;;
13605;SDS011;6874;52.084;5.090;2022-10-31T13:05:50;65.47;;;63.33;;
13605;SDS011;6874;52.084;5.090;2022-10-31T13:11:02;68.97;;;66.67;;
13605;SDS011;6874;52.084;5.090;2022-10-31T13:13:53;61.57;;;59.50;;
13605;SDS011;6874;52.084;5.090;2022-10-31T13:16:34;60.77;;;58.73;;
13605;SDS011;6874;52.084;5.090;2022-10-31T13:19:17;65.50;;;63.33;;
13605;SDS011;6874;52.084;5.090;2022-10-31T13:24:33;66.70;;;64.50;;
13605;SDS011;6874;52.084;5.090;2022-10-31T13:27:10;74.47;;;71.97;;
13605;SDS011;6874;52.084;5.090;2022-10-31T13:32:58;76.40;;;73.90;;
13605;SDS011;6874;52.084;5.090;2022-10-31T13:40:52;81.17;;;78.47;;
13605;SDS011;6874;52.084;5.090;2022-10-31T13:43:30;81.53;;;78.80;;
13605;SDS011;6874;52.084;5.090;2022-10-31T13:46:24;85.80;;;83.00;;
13605;SDS011;6874;52.084;5.090;2022-10-31T13:48:59;84.03;;;81.27;;
13605;SDS011;6874;52.084;5.090;2022-10-31T13:51:34;83.77;;;81.00;;
13605;SDS011;6874;52.084;5.090;2022-10-31T13:54:18;79.73;;;77.10;;
13605;SDS011;6874;52.084;5.090;2022-10-31T13:56:58;79.13;;;76.53;;
13605;SDS011;6874;52.084;5.090;2022-10-31T13:59:25;80.73;;;78.10;;
13605;SDS011;6874;52.084;5.090;2022-10-31T14:01:56;82.43;;;79.73;;
13605;SDS011;6874;52.084;5.090;2022-10-31T14:04:26;77.33;;;74.73;;
13605;SDS011;6874;52.084;5.090;2022-10-31T14:07:06;81.57;;;78.87;;
13605;SDS011;6874;52.084;5.090;2022-10-31T14:09:35;82.07;;;79.37;;
13605;SDS011;6874;52.084;5.090;2022-10-31T14:15:12;81.87;;;79.13;;
13605;SDS011;6874;52.084;5.090;2022-10-31T14:17:46;82.40;;;79.70;;
13605;SDS011;6874;52.084;5.090;2022-10-31T14:23:46;78.67;;;76.07;;
13605;SDS011;6874;52.084;5.090;2022-10-31T14:28:57;85.43;;;82.60;;
13605;SDS011;6874;52.084;5.090;2022-10-31T14:31:37;83.40;;;80.60;;
13605;SDS011;6874;52.084;5.090;2022-10-31T14:34:28;79.90;;;77.27;;
13605;SDS011;6874;52.084;5.090;2022-10-31T14:36:59;86.97;;;84.10;;
13605;SDS011;6874;52.084;5.090;2022-10-31T14:39:49;82.83;;;80.13;;
13605;SDS011;6874;52.084;5.090;2022-10-31T14:42:32;81.90;;;79.20;;
13605;SDS011;6874;52.084;5.090;2022-10-31T14:45:29;82.83;;;80.10;;
13605;SDS011;6874;52.084;5.090;2022-10-31T14:50:49;84.83;;;82.03;;
13605;SDS011;6874;52.084;5.090;2022-10-31T14:53:22;100.27;;;96.80;;
13605;SDS011;6874;52.084;5.090;2022-10-31T14:55:54;87.33;;;84.43;;
13605;SDS011;6874;52.084;5.090;2022-10-31T14:58:22;90.30;;;87.33;;
13605;SDS011;6874;52.084;5.090;2022-10-31T15:01:23;78.50;;;75.90;;
13605;SDS011;6874;52.084;5.090;2022-10-31T15:03:57;85.47;;;82.67;;
13605;SDS011;6874;52.084;5.090;2022-10-31T15:06:28;85.20;;;82.37;;
13605;SDS011;6874;52.084;5.090;2022-10-31T15:09:03;84.97;;;82.17;;
13605;SDS011;6874;52.084;5.090;2022-10-31T15:11:28;88.90;;;85.93;;
13605;SDS011;6874;52.084;5.090;2022-10-31T15:14:05;92.40;;;89.30;;
13605;SDS011;6874;52.084;5.090;2022-10-31T15:16:52;86.80;;;83.90;;
13605;SDS011;6874;52.084;5.090;2022-10-31T15:19:21;92.33;;;89.30;;
13605;SDS011;6874;52.084;5.090;2022-10-31T15:21:53;103.27;;;99.83;;
13605;SDS011;6874;52.084;5.090;2022-10-31T15:24:19;101.07;;;97.70;;
13605;SDS011;6874;52.084;5.090;2022-10-31T15:26:48;98.90;;;95.63;;
13605;SDS011;6874;52.084;5.090;2022-10-31T15:29:20;105.27;;;101.73;;
13605;SDS011;6874;52.084;5.090;2022-10-31T15:31:54;107.03;;;103.47;;
13605;SDS011;6874;52.084;5.090;2022-10-31T15:34:42;103.80;;;100.30;;
13605;SDS011;6874;52.084;5.090;2022-10-31T15:37:10;102.33;;;98.90;;
13605;SDS011;6874;52.084;5.090;2022-10-31T15:39:37;104.83;;;101.33;;
13605;SDS011;6874;52.084;5.090;2022-10-31T15:42:02;110.27;;;106.53;;
13605;SDS011;6874;52.084;5.090;2022-10-31T15:44:30;116.33;;;112.43;;
13605;SDS011;6874;52.084;5.090;2022-10-31T15:47:02;112.43;;;108.60;;
13605;SDS011;6874;52.084;5.090;2022-10-31T15:49:37;115.73;;;111.83;;
13605;SDS011;6874;52.084;5.090;2022-10-31T15:52:11;125.43;;;121.27;;
13605;SDS011;6874;52.084;5.090;2022-10-31T15:54:45;118.70;;;114.73;;
13605;SDS011;6874;52.084;5.090;2022-10-31T15:57:13;121.60;;;117.50;;
13605;SDS011;6874;52.084;5.090;2022-10-31T15:59:40;120.77;;;116.67;;
13605;SDS011;6874;52.084;5.090;2022-10-31T16:02:11;116.73;;;112.73;;
13605;SDS011;6874;52.084;5.090;2022-10-31T16:04:37;124.43;;;120.17;;
13605;SDS011;6874;52.084;5.090;2022-10-31T16:07:18;111.37;;;107.53;;
13605;SDS011;6874;52.084;5.090;2022-10-31T16:09:51;121.17;;;117.00;;
13605;SDS011;6874;52.084;5.090;2022-10-31T16:12:31;117.17;;;113.17;;
13605;SDS011;6874;52.084;5.090;2022-10-31T16:15:00;115.37;;;111.43;;
13605;SDS011;6874;52.084;5.090;2022-10-31T16:17:26;130.80;;;126.33;;
13605;SDS011;6874;52.084;5.090;2022-10-31T16:22:30;123.33;;;119.13;;
13605;SDS011;6874;52.084;5.090;2022-10-31T16:25:08;120.47;;;116.37;;
13605;SDS011;6874;52.084;5.090;2022-10-31T16:27:37;115.33;;;111.40;;
13605;SDS011;6874;52.084;5.090;2022-10-31T16:35:52;102.90;;;99.40;;
13605;SDS011;6874;52.084;5.090;2022-10-31T16:38:18;120.27;;;116.17;;
13605;SDS011;6874;52.084;5.090;2022-10-31T16:40:43;118.60;;;114.63;;
13605;SDS011;6874;52.084;5.090;2022-10-31T16:43:13;122.60;;;118.43;;
13605;SDS011;6874;52.084;5.090;2022-10-31T16:45:46;111.93;;;108.13;;
13605;SDS011;6874;52.084;5.090;2022-10-31T16:48:14;111.93;;;108.13;;
13605;SDS011;6874;52.084;5.090;2022-10-31T16:50:45;107.27;;;103.67;;
13605;SDS011;6874;52.084;5.090;2022-10-31T16:53:14;115.57;;;111.67;;